Maracaju, Brazil
Current Conditions -  °F | °C
As of 12:00 PM on Thursday 30 Oct 2014 (Local Time) from SBCG Reporting Station
Broken Clouds Broken Clouds  
Wind Chill: 86°   Ceiling: 3500
Heat Index: 88°   Visibility: 6mi
Dew Point: 66°   Wind: 17mph
Humidity: 51%   Direction: 300°WNW
Pressure: 29.88"   Gusts: NA
Location:  21.61°S, 55.17°W
Report Text: SBCG 301500Z 30015KT 9999 BKN035 FEW050TCU 30/19 Q1012
Loading
Personal Weather Stations






























Interactive Weather Map
Tropical Storm Tracking
New forecast layout! Learn more

10-Day Weather Forecast

Advertisements
Track Severe Weather on mobile